sensor_id;sensor_type;location;lat;lon;timestamp;pressure;altitude;pressure_sealevel;temperature;humidity
62710;BME280;48770;51.624;5.886;2022-08-19T00:01:46;101201.16;;;25.97;44.74
62710;BME280;48770;51.624;5.886;2022-08-19T00:04:14;101199.91;;;25.94;44.87
62710;BME280;48770;51.624;5.886;2022-08-19T00:06:42;101197.13;;;25.94;44.70
62710;BME280;48770;51.624;5.886;2022-08-19T00:09:10;101200.31;;;25.93;44.62
62710;BME280;48770;51.624;5.886;2022-08-19T00:11:36;101199.88;;;25.91;44.73
62710;BME280;48770;51.624;5.886;2022-08-19T00:14:04;101193.03;;;25.88;44.81
62710;BME280;48770;51.624;5.886;2022-08-19T00:16:30;101196.22;;;25.87;44.80
62710;BME280;48770;51.624;5.886;2022-08-19T00:18:58;101190.19;;;25.85;44.76
62710;BME280;48770;51.624;5.886;2022-08-19T00:21:24;101193.38;;;25.83;44.77
62710;BME280;48770;51.624;5.886;2022-08-19T00:23:50;101195.75;;;25.81;45.14
62710;BME280;48770;51.624;5.886;2022-08-19T00:26:16;101191.72;;;25.78;44.64
62710;BME280;48770;51.624;5.886;2022-08-19T00:28:41;101196.50;;;25.78;44.86
62710;BME280;48770;51.624;5.886;2022-08-19T00:31:07;101196.03;;;25.76;44.77
62710;BME280;48770;51.624;5.886;2022-08-19T00:33:33;101190.03;;;25.74;44.83
62710;BME280;48770;51.624;5.886;2022-08-19T00:36:00;101204.03;;;25.74;44.63
62710;BME280;48770;51.624;5.886;2022-08-19T00:38:26;101200.00;;;25.71;44.82
62710;BME280;48770;51.624;5.886;2022-08-19T00:40:53;101200.38;;;25.70;44.79
62710;BME280;48770;51.624;5.886;2022-08-19T00:43:21;101195.94;;;25.69;44.82
62710;BME280;48770;51.624;5.886;2022-08-19T00:45:47;101193.53;;;25.67;45.07
62710;BME280;48770;51.624;5.886;2022-08-19T00:48:13;101195.88;;;25.65;44.87
62710;BME280;48770;51.624;5.886;2022-08-19T00:50:40;101188.66;;;25.64;44.62
62710;BME280;48770;51.624;5.886;2022-08-19T00:53:08;101194.63;;;25.63;44.88
62710;BME280;48770;51.624;5.886;2022-08-19T00:55:34;101188.59;;;25.61;44.94
62710;BME280;48770;51.624;5.886;2022-08-19T00:58:07;101192.59;;;25.60;44.92
62710;BME280;48770;51.624;5.886;2022-08-19T01:00:36;101194.97;;;25.58;44.94
62710;BME280;48770;51.624;5.886;2022-08-19T01:03:11;101203.75;;;25.56;45.00
62710;BME280;48770;51.624;5.886;2022-08-19T01:05:38;101198.53;;;25.55;44.86
62710;BME280;48770;51.624;5.886;2022-08-19T01:08:06;101198.91;;;25.53;44.84
62710;BME280;48770;51.624;5.886;2022-08-19T01:10:37;101208.84;;;25.50;44.62
62710;BME280;48770;51.624;5.886;2022-08-19T01:13:04;101201.19;;;25.47;44.89
62710;BME280;48770;51.624;5.886;2022-08-19T01:15:34;101205.97;;;25.47;44.87
62710;BME280;48770;51.624;5.886;2022-08-19T01:18:06;101211.94;;;25.45;44.88
62710;BME280;48770;51.624;5.886;2022-08-19T01:20:32;101201.94;;;25.44;44.92
62710;BME280;48770;51.624;5.886;2022-08-19T01:22:58;101203.13;;;25.43;44.70
62710;BME280;48770;51.624;5.886;2022-08-19T01:25:30;101197.91;;;25.42;44.85
62710;BME280;48770;51.624;5.886;2022-08-19T01:27:56;101200.66;;;25.38;44.85
62710;BME280;48770;51.624;5.886;2022-08-19T01:30:27;101191.44;;;25.38;45.07
62710;BME280;48770;51.624;5.886;2022-08-19T01:32:53;101201.84;;;25.37;44.87
62710;BME280;48770;51.624;5.886;2022-08-19T01:35:21;101198.59;;;25.35;44.95
62710;BME280;48770;51.624;5.886;2022-08-19T01:38:01;101200.97;;;25.33;44.82
62710;BME280;48770;51.624;5.886;2022-08-19T01:40:31;101199.72;;;25.31;44.71
62710;BME280;48770;51.624;5.886;2022-08-19T01:42:58;101197.75;;;25.31;44.86
62710;BME280;48770;51.624;5.886;2022-08-19T01:45:25;101205.72;;;25.29;44.73
62710;BME280;48770;51.624;5.886;2022-08-19T01:47:52;101204.91;;;25.29;44.84
62710;BME280;48770;51.624;5.886;2022-08-19T01:50:17;101204.84;;;25.25;44.76
62710;BME280;48770;51.624;5.886;2022-08-19T01:52:44;101210.44;;;25.25;44.75
62710;BME280;48770;51.624;5.886;2022-08-19T01:55:16;101206.00;;;25.24;44.87
62710;BME280;48770;51.624;5.886;2022-08-19T01:57:44;101209.53;;;25.21;44.91
62710;BME280;48770;51.624;5.886;2022-08-19T02:00:14;101220.75;;;25.21;44.83
62710;BME280;48770;51.624;5.886;2022-08-19T02:02:41;101217.88;;;25.17;44.67
62710;BME280;48770;51.624;5.886;2022-08-19T02:05:06;101214.28;;;25.17;44.87
62710;BME280;48770;51.624;5.886;2022-08-19T02:07:33;101215.47;;;25.16;44.86
62710;BME280;48770;51.624;5.886;2022-08-19T02:10:02;101222.25;;;25.15;44.81
62710;BME280;48770;51.624;5.886;2022-08-19T02:12:28;101233.81;;;25.13;44.63
62710;BME280;48770;51.624;5.886;2022-08-19T02:14:54;101228.59;;;25.12;44.89
62710;BME280;48770;51.624;5.886;2022-08-19T02:17:19;101226.16;;;25.10;44.82
62710;BME280;48770;51.624;5.886;2022-08-19T02:19:45;101226.97;;;25.11;44.76
62710;BME280;48770;51.624;5.886;2022-08-19T02:22:10;101218.94;;;25.09;45.10
62710;BME280;48770;51.624;5.886;2022-08-19T02:24:36;101214.91;;;25.07;44.86
62710;BME280;48770;51.624;5.886;2022-08-19T02:27:01;101224.47;;;25.06;44.90
62710;BME280;48770;51.624;5.886;2022-08-19T02:29:26;101211.69;;;25.05;45.02
62710;BME280;48770;51.624;5.886;2022-08-19T02:31:52;101214.03;;;25.03;45.05
62710;BME280;48770;51.624;5.886;2022-08-19T02:34:17;101212.41;;;25.02;45.02
62710;BME280;48770;51.624;5.886;2022-08-19T02:36:42;101221.19;;;25.00;45.05
62710;BME280;48770;51.624;5.886;2022-08-19T02:39:09;101225.97;;;25.00;45.06
62710;BME280;48770;51.624;5.886;2022-08-19T02:41:34;101227.16;;;24.99;44.99
62710;BME280;48770;51.624;5.886;2022-08-19T02:44:01;101234.69;;;24.98;44.86
62710;BME280;48770;51.624;5.886;2022-08-19T02:46:29;101230.28;;;24.97;44.97
62710;BME280;48770;51.624;5.886;2022-08-19T02:48:58;101232.25;;;24.97;45.07
62710;BME280;48770;51.624;5.886;2022-08-19T02:51:28;101233.81;;;24.94;45.18
62710;BME280;48770;51.624;5.886;2022-08-19T02:53:54;101227.78;;;24.92;45.22
62710;BME280;48770;51.624;5.886;2022-08-19T02:56:21;101234.19;;;24.92;44.91
62710;BME280;48770;51.624;5.886;2022-08-19T02:58:47;101230.94;;;24.90;44.94
62710;BME280;48770;51.624;5.886;2022-08-19T03:01:25;101228.53;;;24.89;45.05
62710;BME280;48770;51.624;5.886;2022-08-19T03:03:51;101216.09;;;24.86;45.03
62710;BME280;48770;51.624;5.886;2022-08-19T03:06:17;101218.91;;;24.86;45.06
62710;BME280;48770;51.624;5.886;2022-08-19T03:08:44;101214.47;;;24.85;44.96
62710;BME280;48770;51.624;5.886;2022-08-19T03:11:20;101216.84;;;24.83;45.00
62710;BME280;48770;51.624;5.886;2022-08-19T03:13:47;101218.03;;;24.82;45.04
62710;BME280;48770;51.624;5.886;2022-08-19T03:16:14;101213.59;;;24.81;45.17
62710;BME280;48770;51.624;5.886;2022-08-19T03:18:40;101225.16;;;24.80;44.86
62710;BME280;48770;51.624;5.886;2022-08-19T03:21:05;101234.75;;;24.79;45.00
62710;BME280;48770;51.624;5.886;2022-08-19T03:23:31;101237.53;;;24.79;45.29
62710;BME280;48770;51.624;5.886;2022-08-19T03:25:57;101243.50;;;24.77;45.14
62710;BME280;48770;51.624;5.886;2022-08-19T03:28:22;101241.06;;;24.76;45.22
62710;BME280;48770;51.624;5.886;2022-08-19T03:31:00;101228.66;;;24.73;45.14
62710;BME280;48770;51.624;5.886;2022-08-19T03:33:26;101241.00;;;24.72;45.22
62710;BME280;48770;51.624;5.886;2022-08-19T03:36:10;101248.13;;;24.70;44.99
62710;BME280;48770;51.624;5.886;2022-08-19T03:38:40;101250.50;;;24.48;45.77
62710;BME280;48770;51.624;5.886;2022-08-19T03:41:08;101245.94;;;24.59;45.27
62710;BME280;48770;51.624;5.886;2022-08-19T03:43:36;101246.00;;;24.63;45.22
62710;BME280;48770;51.624;5.886;2022-08-19T03:46:05;101234.81;;;24.63;45.30
62710;BME280;48770;51.624;5.886;2022-08-19T03:48:32;101235.63;;;24.64;44.97
62710;BME280;48770;51.624;5.886;2022-08-19T03:50:58;101232.03;;;24.63;45.24
62710;BME280;48770;51.624;5.886;2022-08-19T03:53:26;101232.03;;;24.63;45.00
62710;BME280;48770;51.624;5.886;2022-08-19T03:55:52;101233.19;;;24.62;44.85
62710;BME280;48770;51.624;5.886;2022-08-19T03:58:18;101229.97;;;24.60;45.30
62710;BME280;48770;51.624;5.886;2022-08-19T04:00:43;101230.34;;;24.58;45.35
62710;BME280;48770;51.624;5.886;2022-08-19T04:03:09;101239.09;;;24.57;45.28
62710;BME280;48770;51.624;5.886;2022-08-19T04:05:34;101241.09;;;24.56;45.00
62710;BME280;48770;51.624;5.886;2022-08-19T04:07:59;101244.69;;;24.57;45.33
62710;BME280;48770;51.624;5.886;2022-08-19T04:10:26;101228.28;;;24.55;45.12
62710;BME280;48770;51.624;5.886;2022-08-19T04:12:51;101234.25;;;24.54;45.23
62710;BME280;48770;51.624;5.886;2022-08-19T04:15:17;101234.63;;;24.52;45.31
62710;BME280;48770;51.624;5.886;2022-08-19T04:17:42;101229.38;;;24.51;45.49
62710;BME280;48770;51.624;5.886;2022-08-19T04:20:08;101216.59;;;24.50;44.96
62710;BME280;48770;51.624;5.886;2022-08-19T04:22:33;101216.59;;;24.50;45.20
62710;BME280;48770;51.624;5.886;2022-08-19T04:24:58;101217.78;;;24.49;45.48
62710;BME280;48770;51.624;5.886;2022-08-19T04:27:24;101209.75;;;24.47;45.14
62710;BME280;48770;51.624;5.886;2022-08-19T04:29:49;101213.72;;;24.46;45.27
62710;BME280;48770;51.624;5.886;2022-08-19T04:32:14;101204.88;;;24.44;45.36
62710;BME280;48770;51.624;5.886;2022-08-19T04:34:40;101209.66;;;24.44;45.38
62710;BME280;48770;51.624;5.886;2022-08-19T04:37:06;101207.66;;;24.44;45.24
62710;BME280;48770;51.624;5.886;2022-08-19T04:39:38;101208.03;;;24.43;45.20
62710;BME280;48770;51.624;5.886;2022-08-19T04:42:22;101208.78;;;24.40;45.44
62710;BME280;48770;51.624;5.886;2022-08-19T04:45:07;101210.66;;;24.16;45.72
62710;BME280;48770;51.624;5.886;2022-08-19T04:47:35;101214.50;;;24.27;45.65
62710;BME280;48770;51.624;5.886;2022-08-19T04:50:02;101213.78;;;24.31;45.61
62710;BME280;48770;51.624;5.886;2022-08-19T04:52:27;101222.63;;;24.33;45.35
62710;BME280;48770;51.624;5.886;2022-08-19T04:54:53;101221.81;;;24.32;45.30
62710;BME280;48770;51.624;5.886;2022-08-19T04:57:20;101224.22;;;24.34;45.47
62710;BME280;48770;51.624;5.886;2022-08-19T04:59:46;101231.38;;;24.31;45.50
62710;BME280;48770;51.624;5.886;2022-08-19T05:02:11;101228.56;;;24.31;45.38
62710;BME280;48770;51.624;5.886;2022-08-19T05:04:36;101229.75;;;24.30;45.58
62710;BME280;48770;51.624;5.886;2022-08-19T05:07:04;101232.53;;;24.30;45.55
62710;BME280;48770;51.624;5.886;2022-08-19T05:09:30;101230.94;;;24.29;45.69
62710;BME280;48770;51.624;5.886;2022-08-19T05:11:55;101236.84;;;24.27;45.46
62710;BME280;48770;51.624;5.886;2022-08-19T05:14:20;101238.03;;;24.26;45.29
62710;BME280;48770;51.624;5.886;2022-08-19T05:16:46;101247.59;;;24.25;45.30
62710;BME280;48770;51.624;5.886;2022-08-19T05:19:12;101240.38;;;24.24;45.58
62710;BME280;48770;51.624;5.886;2022-08-19T05:21:55;101245.53;;;24.22;45.48
62710;BME280;48770;51.624;5.886;2022-08-19T05:24:40;101245.09;;;24.20;45.42
62710;BME280;48770;51.624;5.886;2022-08-19T05:27:05;101239.50;;;24.20;45.49
62710;BME280;48770;51.624;5.886;2022-08-19T05:29:32;101249.03;;;24.19;45.61
62710;BME280;48770;51.624;5.886;2022-08-19T05:32:00;101254.63;;;24.19;45.67
62710;BME280;48770;51.624;5.886;2022-08-19T05:34:26;101255.78;;;24.18;45.52
62710;BME280;48770;51.624;5.886;2022-08-19T05:36:55;101254.97;;;24.18;45.39
62710;BME280;48770;51.624;5.886;2022-08-19T05:39:24;101254.19;;;24.17;45.64
62710;BME280;48770;51.624;5.886;2022-08-19T05:42:04;101252.94;;;24.15;45.66
62710;BME280;48770;51.624;5.886;2022-08-19T05:44:33;101252.13;;;24.14;45.85
62710;BME280;48770;51.624;5.886;2022-08-19T05:47:01;101254.91;;;24.14;45.72
62710;BME280;48770;51.624;5.886;2022-08-19T05:49:28;101251.31;;;24.14;46.10
62710;BME280;48770;51.624;5.886;2022-08-19T05:51:54;101252.47;;;24.13;45.86
62710;BME280;48770;51.624;5.886;2022-08-19T05:54:21;101256.09;;;24.13;46.05
62710;BME280;48770;51.624;5.886;2022-08-19T05:56:48;101256.44;;;24.12;46.03
62710;BME280;48770;51.624;5.886;2022-08-19T05:59:15;101254.47;;;24.12;45.71
62710;BME280;48770;51.624;5.886;2022-08-19T06:01:44;101247.63;;;24.10;46.06
62710;BME280;48770;51.624;5.886;2022-08-19T06:04:11;101253.59;;;24.08;46.25
62710;BME280;48770;51.624;5.886;2022-08-19T06:06:38;101243.59;;;24.07;46.28
62710;BME280;48770;51.624;5.886;2022-08-19T06:09:05;101251.97;;;24.07;45.87
62710;BME280;48770;51.624;5.886;2022-08-19T06:11:33;101261.53;;;24.06;46.03
62710;BME280;48770;51.624;5.886;2022-08-19T06:14:04;101252.34;;;24.06;46.20
62710;BME280;48770;51.624;5.886;2022-08-19T06:16:33;101258.28;;;24.04;46.20
62710;BME280;48770;51.624;5.886;2022-08-19T06:19:02;101261.06;;;24.04;46.04
62710;BME280;48770;51.624;5.886;2022-08-19T06:21:28;101265.84;;;24.04;46.10
62710;BME280;48770;51.624;5.886;2022-08-19T06:23:55;101267.03;;;24.03;46.48
62710;BME280;48770;51.624;5.886;2022-08-19T06:26:22;101273.44;;;24.03;46.34
62710;BME280;48770;51.624;5.886;2022-08-19T06:28:48;101271.00;;;24.02;46.28
62710;BME280;48770;51.624;5.886;2022-08-19T06:33:42;101265.78;;;24.00;46.39
62710;BME280;48770;51.624;5.886;2022-08-19T06:36:15;101267.75;;;23.99;46.46
62710;BME280;48770;51.624;5.886;2022-08-19T06:38:41;101276.13;;;23.99;46.56
62710;BME280;48770;51.624;5.886;2022-08-19T06:41:06;101268.13;;;23.98;46.64
62710;BME280;48770;51.624;5.886;2022-08-19T06:43:31;101263.72;;;23.97;46.34
62710;BME280;48770;51.624;5.886;2022-08-19T06:45:57;101273.72;;;23.98;46.32
62710;BME280;48770;51.624;5.886;2022-08-19T06:48:24;101270.13;;;23.97;46.33
62710;BME280;48770;51.624;5.886;2022-08-19T06:50:49;101277.69;;;23.97;46.69
62710;BME280;48770;51.624;5.886;2022-08-19T06:53:16;101268.13;;;23.98;46.74
62710;BME280;48770;51.624;5.886;2022-08-19T06:55:44;101276.88;;;23.96;46.84
62710;BME280;48770;51.624;5.886;2022-08-19T06:58:10;101269.31;;;23.97;46.40
62710;BME280;48770;51.624;5.886;2022-08-19T07:00:36;101272.09;;;23.97;46.68
62710;BME280;48770;51.624;5.886;2022-08-19T07:03:01;101276.50;;;23.98;46.62
62710;BME280;48770;51.624;5.886;2022-08-19T07:05:27;101268.50;;;23.96;46.60
62710;BME280;48770;51.624;5.886;2022-08-19T07:07:52;101272.47;;;23.95;46.51
62710;BME280;48770;51.624;5.886;2022-08-19T07:10:18;101262.09;;;23.96;46.72
62710;BME280;48770;51.624;5.886;2022-08-19T07:12:44;101273.28;;;23.96;46.54
62710;BME280;48770;51.624;5.886;2022-08-19T07:15:10;101268.84;;;23.95;46.69
62710;BME280;48770;51.624;5.886;2022-08-19T07:17:36;101281.66;;;23.96;46.73
62710;BME280;48770;51.624;5.886;2022-08-19T07:20:05;101291.66;;;23.97;47.40
62710;BME280;48770;51.624;5.886;2022-08-19T07:22:35;101291.19;;;23.95;47.46
62710;BME280;48770;51.624;5.886;2022-08-19T07:25:03;101295.63;;;23.96;47.53
62710;BME280;48770;51.624;5.886;2022-08-19T07:27:29;101291.66;;;23.97;47.73
62710;BME280;48770;51.624;5.886;2022-08-19T07:29:54;101293.63;;;23.96;48.17
62710;BME280;48770;51.624;5.886;2022-08-19T07:32:20;101292.81;;;23.96;48.69
62710;BME280;48770;51.624;5.886;2022-08-19T07:34:45;101295.63;;;23.96;48.50
62710;BME280;48770;51.624;5.886;2022-08-19T07:37:11;101290.03;;;23.96;48.39
62710;BME280;48770;51.624;5.886;2022-08-19T07:39:37;101293.25;;;23.98;48.64
62710;BME280;48770;51.624;5.886;2022-08-19T07:42:06;101287.69;;;23.98;48.42
62710;BME280;48770;51.624;5.886;2022-08-19T07:44:33;101292.47;;;23.97;48.41
62710;BME280;48770;51.624;5.886;2022-08-19T07:46:59;101300.47;;;23.99;48.52
62710;BME280;48770;51.624;5.886;2022-08-19T07:49:25;101306.06;;;23.99;48.49
62710;BME280;48770;51.624;5.886;2022-08-19T07:52:03;101298.84;;;23.98;48.23
62710;BME280;48770;51.624;5.886;2022-08-19T07:54:31;101288.13;;;24.00;48.11
62710;BME280;48770;51.624;5.886;2022-08-19T07:56:59;101293.72;;;24.00;48.30
62710;BME280;48770;51.624;5.886;2022-08-19T07:59:25;101300.91;;;24.01;48.15
62710;BME280;48770;51.624;5.886;2022-08-19T08:01:51;101304.88;;;24.00;48.35
62710;BME280;48770;51.624;5.886;2022-08-19T08:04:18;101308.13;;;24.02;48.40
62710;BME280;48770;51.624;5.886;2022-08-19T08:07:03;101315.69;;;24.02;48.06
62710;BME280;48770;51.624;5.886;2022-08-19T08:09:47;101312.09;;;24.01;48.27
62710;BME280;48770;51.624;5.886;2022-08-19T08:12:20;101312.09;;;24.01;47.97
62710;BME280;48770;51.624;5.886;2022-08-19T08:14:52;101316.50;;;24.02;47.93
62710;BME280;48770;51.624;5.886;2022-08-19T08:17:20;101323.34;;;24.05;47.92
62710;BME280;48770;51.624;5.886;2022-08-19T08:19:46;101321.38;;;24.05;47.99
62710;BME280;48770;51.624;5.886;2022-08-19T08:22:15;101322.97;;;24.06;47.92
62710;BME280;48770;51.624;5.886;2022-08-19T08:25:05;101325.78;;;24.06;48.03
62710;BME280;48770;51.624;5.886;2022-08-19T08:27:30;101330.19;;;24.07;48.10
62710;BME280;48770;51.624;5.886;2022-08-19T08:29:57;101328.19;;;24.08;48.16
62710;BME280;48770;51.624;5.886;2022-08-19T08:32:22;101331.81;;;24.08;48.08
62710;BME280;48770;51.624;5.886;2022-08-19T08:34:48;101329.47;;;24.10;48.05
62710;BME280;48770;51.624;5.886;2022-08-19T08:37:13;101331.06;;;24.11;48.03
62710;BME280;48770;51.624;5.886;2022-08-19T08:39:39;101329.91;;;24.12;47.92
62710;BME280;48770;51.624;5.886;2022-08-19T08:45:12;101341.88;;;24.13;48.26
62710;BME280;48770;51.624;5.886;2022-08-19T08:47:42;101335.13;;;24.14;48.21
62710;BME280;48770;51.624;5.886;2022-08-19T08:50:33;101341.53;;;24.14;48.77
62710;BME280;48770;51.624;5.886;2022-08-19T08:53:06;101324.03;;;24.17;48.56
62710;BME280;48770;51.624;5.886;2022-08-19T08:55:32;101330.88;;;24.20;48.99
62710;BME280;48770;51.624;5.886;2022-08-19T08:58:04;101335.75;;;24.23;49.06
62710;BME280;48770;51.624;5.886;2022-08-19T09:00:38;101331.78;;;24.24;48.90
62710;BME280;48770;51.624;5.886;2022-08-19T09:03:10;101332.59;;;24.24;49.28
62710;BME280;48770;51.624;5.886;2022-08-19T09:06:00;101328.25;;;24.27;49.44
62710;BME280;48770;51.624;5.886;2022-08-19T09:08:29;101328.25;;;24.27;49.54
62710;BME280;48770;51.624;5.886;2022-08-19T09:10:58;101332.34;;;24.29;49.79
62710;BME280;48770;51.624;5.886;2022-08-19T09:13:46;101324.41;;;24.32;49.71
62710;BME280;48770;51.624;5.886;2022-08-19T09:16:18;101327.19;;;24.32;50.18
62710;BME280;48770;51.624;5.886;2022-08-19T09:18:49;101325.28;;;24.36;50.29
62710;BME280;48770;51.624;5.886;2022-08-19T09:21:19;101326.91;;;24.37;50.13
62710;BME280;48770;51.624;5.886;2022-08-19T09:23:46;101326.97;;;24.40;50.26
62710;BME280;48770;51.624;5.886;2022-08-19T09:26:14;101330.22;;;24.42;50.57
62710;BME280;48770;51.624;5.886;2022-08-19T09:28:41;101323.09;;;24.45;50.24
62710;BME280;48770;51.624;5.886;2022-08-19T09:31:12;101321.56;;;24.47;50.40
62710;BME280;48770;51.624;5.886;2022-08-19T09:33:38;101325.19;;;24.48;50.54
62710;BME280;48770;51.624;5.886;2022-08-19T09:36:06;101318.84;;;24.51;50.49
62710;BME280;48770;51.624;5.886;2022-08-19T09:38:32;101321.28;;;24.52;50.54
62710;BME280;48770;51.624;5.886;2022-08-19T09:41:09;101320.53;;;24.55;50.44
62710;BME280;48770;51.624;5.886;2022-08-19T09:43:37;101325.41;;;24.58;50.37
62710;BME280;48770;51.624;5.886;2022-08-19T09:46:03;101326.28;;;24.63;50.41
62710;BME280;48770;51.624;5.886;2022-08-19T09:48:36;101325.16;;;24.67;50.50
62710;BME280;48770;51.624;5.886;2022-08-19T09:51:04;101327.69;;;24.72;50.64
62710;BME280;48770;51.624;5.886;2022-08-19T09:53:29;101328.22;;;24.78;50.45
62710;BME280;48770;51.624;5.886;2022-08-19T09:55:55;101326.28;;;24.82;50.17
62710;BME280;48770;51.624;5.886;2022-08-19T09:58:23;101338.00;;;24.87;50.46
62710;BME280;48770;51.624;5.886;2022-08-19T10:00:55;101339.25;;;24.90;50.28
62710;BME280;48770;51.624;5.886;2022-08-19T10:03:22;101329.72;;;24.95;50.26
62710;BME280;48770;51.624;5.886;2022-08-19T10:05:47;101327.38;;;24.97;50.07
62710;BME280;48770;51.624;5.886;2022-08-19T10:08:14;101333.91;;;25.01;50.26
62710;BME280;48770;51.624;5.886;2022-08-19T10:10:41;101337.97;;;25.03;49.95
62710;BME280;48770;51.624;5.886;2022-08-19T10:13:09;101343.19;;;25.05;50.27
62710;BME280;48770;51.624;5.886;2022-08-19T10:15:35;101344.44;;;25.07;50.22
62710;BME280;48770;51.624;5.886;2022-08-19T10:18:05;101336.47;;;25.09;50.04
62710;BME280;48770;51.624;5.886;2022-08-19T10:20:31;101341.69;;;25.11;50.09
62710;BME280;48770;51.624;5.886;2022-08-19T10:22:56;101344.94;;;25.13;50.04
62710;BME280;48770;51.624;5.886;2022-08-19T10:25:24;101331.38;;;25.15;50.42
62710;BME280;48770;51.624;5.886;2022-08-19T10:27:49;101340.22;;;25.17;50.31
62710;BME280;48770;51.624;5.886;2022-08-19T10:30:14;101339.84;;;25.18;50.18
62710;BME280;48770;51.624;5.886;2022-08-19T10:32:40;101332.69;;;25.21;50.58
62710;BME280;48770;51.624;5.886;2022-08-19T10:35:05;101353.53;;;25.24;50.17
62710;BME280;48770;51.624;5.886;2022-08-19T10:37:34;101345.22;;;25.27;50.21
62710;BME280;48770;51.624;5.886;2022-08-19T10:39:59;101349.63;;;25.28;50.26
62710;BME280;48770;51.624;5.886;2022-08-19T10:42:25;101349.25;;;25.30;50.37
62710;BME280;48770;51.624;5.886;2022-08-19T10:44:50;101344.09;;;25.32;50.32
62710;BME280;48770;51.624;5.886;2022-08-19T10:47:15;101347.34;;;25.34;50.36
62710;BME280;48770;51.624;5.886;2022-08-19T10:49:41;101345.78;;;25.36;50.33
62710;BME280;48770;51.624;5.886;2022-08-19T10:52:25;101341.00;;;25.37;50.55
62710;BME280;48770;51.624;5.886;2022-08-19T10:55:00;101333.84;;;25.39;50.71
62710;BME280;48770;51.624;5.886;2022-08-19T10:57:45;101337.88;;;25.42;50.54
62710;BME280;48770;51.624;5.886;2022-08-19T11:00:10;101341.13;;;25.44;50.78
62710;BME280;48770;51.624;5.886;2022-08-19T11:02:36;101342.34;;;25.46;50.84
62710;BME280;48770;51.624;5.886;2022-08-19T11:05:02;101338.38;;;25.47;50.83
62710;BME280;48770;51.624;5.886;2022-08-19T11:07:27;101340.47;;;25.50;51.03
62710;BME280;48770;51.624;5.886;2022-08-19T11:09:53;101339.28;;;25.51;50.93
62710;BME280;48770;51.624;5.886;2022-08-19T11:12:18;101335.72;;;25.55;50.99
62710;BME280;48770;51.624;5.886;2022-08-19T11:14:44;101337.78;;;25.58;50.91
62710;BME280;48770;51.624;5.886;2022-08-19T11:17:10;101342.19;;;25.59;51.04
62710;BME280;48770;51.624;5.886;2022-08-19T11:19:39;101337.03;;;25.61;50.67
62710;BME280;48770;51.624;5.886;2022-08-19T11:22:07;101342.69;;;25.64;50.58
62710;BME280;48770;51.624;5.886;2022-08-19T11:24:35;101345.13;;;25.66;50.79
62710;BME280;48770;51.624;5.886;2022-08-19T11:27:07;101337.97;;;25.68;50.67
62710;BME280;48770;51.624;5.886;2022-08-19T11:29:34;101334.00;;;25.69;50.92
62710;BME280;48770;51.624;5.886;2022-08-19T11:32:05;101323.22;;;25.71;50.90
62710;BME280;48770;51.624;5.886;2022-08-19T11:34:30;101334.88;;;25.73;51.07
62710;BME280;48770;51.624;5.886;2022-08-19T11:36:56;101327.69;;;25.76;50.94
62710;BME280;48770;51.624;5.886;2022-08-19T11:39:28;101325.38;;;25.78;50.75
62710;BME280;48770;51.624;5.886;2022-08-19T11:41:54;101326.59;;;25.80;50.67
62710;BME280;48770;51.624;5.886;2022-08-19T11:44:19;101330.66;;;25.83;51.03
62710;BME280;48770;51.624;5.886;2022-08-19T11:46:45;101326.66;;;25.84;51.00
62710;BME280;48770;51.624;5.886;2022-08-19T11:49:13;101330.31;;;25.88;50.97
62710;BME280;48770;51.624;5.886;2022-08-19T11:51:38;101325.16;;;25.90;50.95
62710;BME280;48770;51.624;5.886;2022-08-19T11:54:05;101317.97;;;25.93;51.15
62710;BME280;48770;51.624;5.886;2022-08-19T11:56:31;101319.22;;;25.95;51.01
62710;BME280;48770;51.624;5.886;2022-08-19T11:58:57;101326.06;;;25.98;50.93
62710;BME280;48770;51.624;5.886;2022-08-19T12:01:25;101318.88;;;26.00;51.03
62710;BME280;48770;51.624;5.886;2022-08-19T12:03:52;101314.56;;;26.03;51.12
62710;BME280;48770;51.624;5.886;2022-08-19T12:06:21;101321.41;;;26.05;51.08
62710;BME280;48770;51.624;5.886;2022-08-19T12:08:55;101321.03;;;26.07;51.11
62710;BME280;48770;51.624;5.886;2022-08-19T12:11:21;101316.66;;;26.09;50.96
62710;BME280;48770;51.624;5.886;2022-08-19T12:13:46;101319.88;;;26.11;51.17
62710;BME280;48770;51.624;5.886;2022-08-19T12:16:16;101322.75;;;26.15;51.19
62710;BME280;48770;51.624;5.886;2022-08-19T12:18:42;101324.41;;;26.20;51.21
62710;BME280;48770;51.624;5.886;2022-08-19T12:21:13;101320.41;;;26.21;51.33
62710;BME280;48770;51.624;5.886;2022-08-19T12:23:40;101318.47;;;26.25;51.52
62710;BME280;48770;51.624;5.886;2022-08-19T12:26:05;101320.50;;;26.28;51.47
62710;BME280;48770;51.624;5.886;2022-08-19T12:28:31;101325.75;;;26.29;51.49
62710;BME280;48770;51.624;5.886;2022-08-19T12:30:56;101317.41;;;26.33;51.12
62710;BME280;48770;51.624;5.886;2022-08-19T12:33:22;101327.88;;;26.36;51.42
62710;BME280;48770;51.624;5.886;2022-08-19T12:35:49;101327.94;;;26.39;51.35
62710;BME280;48770;51.624;5.886;2022-08-19T12:38:15;101321.94;;;26.41;51.36
62710;BME280;48770;51.624;5.886;2022-08-19T12:40:41;101322.00;;;26.45;51.38
62710;BME280;48770;51.624;5.886;2022-08-19T12:43:07;101324.84;;;26.48;51.10
62710;BME280;48770;51.624;5.886;2022-08-19T12:45:33;101322.47;;;26.50;51.34
62710;BME280;48770;51.624;5.886;2022-08-19T12:47:59;101321.69;;;26.53;51.33
62710;BME280;48770;51.624;5.886;2022-08-19T12:50:24;101319.34;;;26.55;51.24
62710;BME280;48770;51.624;5.886;2022-08-19T12:52:50;101310.16;;;26.58;51.45
62710;BME280;48770;51.624;5.886;2022-08-19T12:55:15;101308.59;;;26.61;51.10
62710;BME280;48770;51.624;5.886;2022-08-19T12:57:41;101301.41;;;26.63;51.50
62710;BME280;48770;51.624;5.886;2022-08-19T13:00:07;101306.63;;;26.65;51.49